Atlanta (ATL/KATL)

Information

Location
Atlanta, GA
Local Time
01:33 / 1:33 am
GMT Time
06:33 / 6:33 am
Gates
Unassigned
No FAA reported delays
METAR KATL 220602Z 09009KT 10SM BKN016 BKN055 OVC070 16/15 A2991 RMK AO2 T01610150
TAF KATL 220523Z 2206/2312 09008KT 5SM -RA BR BKN025 FM220900 09008KT 3SM -RA BR OVC007 FM221200 09008KT 3SM -RA BR OVC004 FM221500 09010KT 5SM -RA BR OVC007 FM221800 08008KT P6SM VCSH OVC012 FM222100 08007KT P6SM BKN025 FM230200 08006KT P6SM BKN015 FM230600 08004KT 4SM BR OVC005
  • No charts available